Time;durP1;ratioP1;P1;durP2;ratioP2;P2;SDS_P1;SDS_P2;PMS_P1;PMS_P2;Temp;Humidity;BMP_temperature;BMP_pressure;BME280_temperature;BME280_humidity;BME280_pressure;Samples;Min_cycle;Max_cycle;Signal;HPM_P1;HPM_P2
2024/04/07 00:00:26;;;;;;;4.63;3.28;;;18.80;99.90;;;;;;4991884;28;20180;-72
2024/04/07 00:02:52;;;;;;;4.47;3.17;;;18.80;99.90;;;;;;4991685;28;20193;-72
2024/04/07 00:05:22;;;;;;;3.75;2.78;;;18.70;99.90;;;;;;4991738;28;20169;-72
2024/04/07 00:07:47;;;;;;;6.70;3.33;;;18.70;99.90;;;;;;4991203;28;20181;-72
2024/04/07 00:10:13;;;;;;;3.77;3.40;;;18.70;99.90;;;;;;4991965;28;20287;-72
2024/04/07 00:12:39;;;;;;;5.33;3.40;;;18.60;99.90;;;;;;4994371;28;20255;-73
2024/04/07 00:15:05;;;;;;;3.10;2.80;;;18.60;99.90;;;;;;4994997;28;20738;-72
2024/04/07 00:17:32;;;;;;;5.85;2.83;;;18.60;99.90;;;;;;4995070;28;20172;-73
2024/04/07 00:19:57;;;;;;;5.82;3.03;;;18.50;99.90;;;;;;4995130;28;20256;-72
2024/04/07 00:22:26;;;;;;;6.13;3.40;;;18.50;99.90;;;;;;4995238;28;20287;-72
2024/04/07 00:24:52;;;;;;;8.43;3.10;;;18.50;99.90;;;;;;4995207;28;20220;-72
2024/04/07 00:27:19;;;;;;;5.20;3.00;;;18.50;99.90;;;;;;4995138;28;20177;-72
2024/04/07 00:29:46;;;;;;;4.13;3.17;;;18.50;99.90;;;;;;4995263;28;20165;-72
2024/04/07 00:32:12;;;;;;;4.20;3.10;;;18.40;99.90;;;;;;4994797;28;20200;-72
2024/04/07 00:34:48;;;;;;;5.78;2.72;;;18.40;99.90;;;;;;4994671;28;20211;-73
2024/04/07 00:37:15;;;;;;;7.03;2.80;;;18.40;99.90;;;;;;4994962;28;20200;-73
2024/04/07 00:39:41;;;;;;;4.28;2.60;;;18.40;99.90;;;;;;4994806;28;20164;-73
2024/04/07 00:42:07;;;;;;;4.20;2.88;;;18.40;99.90;;;;;;4994533;28;20503;-73
2024/04/07 00:44:33;;;;;;;6.07;2.50;;;18.40;99.90;;;;;;4994784;28;20169;-72
2024/04/07 00:46:58;;;;;;;2.83;2.53;;;18.40;99.90;;;;;;4994414;28;20640;-73
2024/04/07 00:49:24;;;;;;;5.27;2.70;;;18.40;99.90;;;;;;4994253;28;20191;-72
2024/04/07 00:51:50;;;;;;;6.60;2.70;;;18.40;99.90;;;;;;4994753;28;20665;-73
2024/04/07 00:54:16;;;;;;;4.00;2.57;;;18.40;99.90;;;;;;4994748;28;20642;-73
2024/04/07 00:56:42;;;;;;;6.23;3.20;;;18.40;99.90;;;;;;4994534;28;20207;-73
2024/04/07 00:59:07;;;;;;;8.20;2.95;;;18.40;99.90;;;;;;4994276;28;20239;-73
2024/04/07 01:01:33;;;;;;;4.63;2.70;;;18.30;99.90;;;;;;4993968;28;20196;-73
2024/04/07 01:03:58;;;;;;;4.57;2.70;;;18.30;99.90;;;;;;4993902;28;20637;-73
2024/04/07 01:06:24;;;;;;;5.15;2.45;;;18.20;99.90;;;;;;4994163;28;20184;-73
2024/04/07 01:08:53;;;;;;;5.72;2.67;;;18.20;99.90;;;;;;4994363;28;20464;-72
2024/04/07 01:11:19;;;;;;;4.17;2.90;;;18.10;99.90;;;;;;4994422;28;20191;-73
2024/04/07 01:13:44;;;;;;;4.13;2.80;;;18.00;99.90;;;;;;4994321;28;20177;-74
2024/04/07 01:16:10;;;;;;;4.68;2.70;;;17.90;99.90;;;;;;4994203;28;20216;-73
2024/04/07 01:18:35;;;;;;;4.13;3.00;;;17.90;99.90;;;;;;4994000;28;20660;-73
2024/04/07 01:21:01;;;;;;;3.80;2.60;;;17.80;99.90;;;;;;4994133;28;20181;-73
2024/04/07 01:23:26;;;;;;;4.03;2.70;;;17.70;99.90;;;;;;4992882;28;20173;-73
2024/04/07 01:25:52;;;;;;;5.93;2.87;;;17.70;99.90;;;;;;4994075;28;20181;-73
2024/04/07 01:28:18;;;;;;;3.67;2.63;;;17.60;99.90;;;;;;4993683;28;20185;-73
2024/04/07 01:30:43;;;;;;;5.10;2.57;;;17.50;99.90;;;;;;4994033;28;20634;-72
2024/04/07 01:33:10;;;;;;;4.47;2.50;;;17.50;99.90;;;;;;4993675;28;20685;-72
2024/04/07 01:35:35;;;;;;;4.30;3.05;;;17.50;99.90;;;;;;4994060;28;20286;-72
2024/04/07 01:38:01;;;;;;;3.70;2.60;;;17.40;99.90;;;;;;4993699;28;20181;-72
2024/04/07 01:40:27;;;;;;;2.80;2.43;;;17.40;99.90;;;;;;4993903;28;20173;-73
2024/04/07 01:42:53;;;;;;;5.40;3.10;;;17.40;99.90;;;;;;4993240;28;20212;-72
2024/04/07 01:45:19;;;;;;;4.67;2.60;;;17.50;99.90;;;;;;4993402;28;20177;-72
2024/04/07 01:47:45;;;;;;;5.17;3.03;;;17.50;99.90;;;;;;4992301;28;20177;-72
2024/04/07 01:50:11;;;;;;;4.70;3.00;;;17.50;99.90;;;;;;4993569;28;20176;-72
2024/04/07 01:52:37;;;;;;;4.00;2.90;;;17.50;99.90;;;;;;4993673;28;20197;-72
2024/04/07 01:55:03;;;;;;;6.57;3.03;;;17.50;99.90;;;;;;4993701;28;20201;-72
2024/04/07 01:57:28;;;;;;;5.20;2.90;;;17.50;99.90;;;;;;4993294;28;20183;-73
2024/04/07 01:59:55;;;;;;;5.00;2.70;;;17.50;99.90;;;;;;4993496;28;20180;-72
2024/04/07 02:02:21;;;;;;;4.77;2.60;;;17.40;99.90;;;;;;4993428;28;20200;-73
2024/04/07 02:04:47;;;;;;;4.63;3.10;;;17.40;99.90;;;;;;4994032;28;20702;-73
2024/04/07 02:07:13;;;;;;;4.87;2.90;;;17.40;99.90;;;;;;4993122;28;20300;-73
2024/04/07 02:09:38;;;;;;;5.67;2.80;;;17.30;99.90;;;;;;4992901;28;20177;-73
2024/04/07 02:12:04;;;;;;;3.90;3.13;;;17.40;99.90;;;;;;4992819;28;20196;-72
2024/04/07 02:14:31;;;;;;;7.03;2.97;;;17.50;99.90;;;;;;4993235;28;20565;-73
2024/04/07 02:16:57;;;;;;;4.20;2.70;;;17.50;99.90;;;;;;4992787;28;20204;-72
2024/04/07 02:19:22;;;;;;;4.33;2.63;;;17.60;99.90;;;;;;4992862;28;20239;-72
2024/04/07 02:21:48;;;;;;;5.73;2.93;;;17.70;99.90;;;;;;4992900;28;20189;-72
2024/04/07 02:24:13;;;;;;;6.87;2.80;;;17.90;99.90;;;;;;4992633;28;20199;-72
2024/04/07 02:26:39;;;;;;;5.60;2.50;;;18.10;99.90;;;;;;4992837;28;20180;-73
2024/04/07 02:29:04;;;;;;;4.40;3.13;;;18.20;99.90;;;;;;4992642;28;20177;-73
2024/04/07 02:31:30;;;;;;;4.60;3.40;;;18.30;99.90;;;;;;4992654;28;20682;-72
2024/04/07 02:33:56;;;;;;;6.20;2.90;;;18.40;99.90;;;;;;4992423;28;20173;-73
2024/04/07 02:36:22;;;;;;;4.37;2.70;;;18.40;99.90;;;;;;4992944;28;20200;-73
2024/04/07 02:38:47;;;;;;;12.53;3.40;;;18.50;99.90;;;;;;4992681;28;20180;-72
2024/04/07 02:41:15;;;;;;;5.33;2.60;;;18.50;99.90;;;;;;4992756;28;20172;-72
2024/04/07 02:43:44;;;;;;;4.27;2.33;;;18.50;99.90;;;;;;4993034;28;20165;-73
2024/04/07 02:48:53;;;;;;;6.63;3.23;;;18.50;99.90;;;;;;4992500;28;20180;-71
2024/04/07 02:51:19;;;;;;;5.93;3.33;;;18.50;99.90;;;;;;4992674;28;20181;-72
2024/04/07 02:53:45;;;;;;;3.70;3.23;;;18.50;99.90;;;;;;4992788;28;20181;-72
2024/04/07 02:56:11;;;;;;;3.97;3.03;;;18.50;99.90;;;;;;4992626;28;20208;-72
2024/04/07 02:58:36;;;;;;;3.93;2.57;;;18.50;99.90;;;;;;4992625;28;20173;-72
2024/04/07 03:01:03;;;;;;;7.13;3.10;;;18.50;99.90;;;;;;4993757;28;20179;-71
2024/04/07 03:03:29;;;;;;;7.40;2.90;;;18.40;99.90;;;;;;4992189;28;20180;-73
2024/04/07 03:05:55;;;;;;;10.93;2.93;;;18.40;99.90;;;;;;4992571;28;20169;-72
2024/04/07 03:08:21;;;;;;;9.27;2.90;;;18.30;99.90;;;;;;4992544;28;20188;-72
2024/04/07 03:11:00;;;;;;;6.40;3.07;;;18.30;99.90;;;;;;4992623;28;20169;-72
2024/04/07 03:13:26;;;;;;;4.68;2.80;;;18.20;99.90;;;;;;4992149;28;20196;-73
2024/04/07 03:15:51;;;;;;;5.10;3.10;;;18.10;99.90;;;;;;4992301;28;20196;-72
2024/04/07 03:18:17;;;;;;;3.63;2.93;;;18.00;99.90;;;;;;4991873;28;20187;-72
2024/04/07 03:20:43;;;;;;;9.07;2.90;;;18.00;99.90;;;;;;4992186;28;20173;-72
2024/04/07 03:23:09;;;;;;;3.77;2.90;;;17.90;99.90;;;;;;4991965;28;20697;-72
2024/04/07 03:25:34;;;;;;;7.23;3.13;;;17.90;99.90;;;;;;4992453;28;20185;-71
2024/04/07 03:28:00;;;;;;;7.30;3.00;;;17.90;99.90;;;;;;4992405;28;20180;-72
2024/04/07 03:30:26;;;;;;;6.13;3.23;;;17.80;99.90;;;;;;4992752;28;20212;-71
2024/04/07 03:32:52;;;;;;;6.27;3.03;;;17.80;99.90;;;;;;4993067;28;20212;-72
2024/04/07 03:35:17;;;;;;;5.80;3.20;;;17.80;99.90;;;;;;4993175;28;20585;-72
2024/04/07 03:37:43;;;;;;;7.93;3.70;;;17.80;99.90;;;;;;4992812;28;20173;-72
2024/04/07 03:40:09;;;;;;;6.53;3.27;;;17.90;99.90;;;;;;4992685;28;20635;-73
2024/04/07 03:42:34;;;;;;;4.27;3.00;;;17.90;99.90;;;;;;4993616;28;20193;-71
2024/04/07 03:45:00;;;;;;;8.17;3.90;;;17.90;99.90;;;;;;4992889;28;20263;-71
2024/04/07 03:47:26;;;;;;;11.47;3.40;;;17.90;99.90;;;;;;4994431;28;20577;-71
2024/04/07 03:49:51;;;;;;;5.60;3.13;;;17.90;99.90;;;;;;4995893;28;20180;-70
2024/04/07 03:52:19;;;;;;;5.47;3.20;;;17.90;99.90;;;;;;4995981;28;20659;-71
2024/04/07 03:54:44;;;;;;;4.13;3.03;;;17.90;99.90;;;;;;4995904;28;20219;-71
2024/04/07 03:57:10;;;;;;;6.33;3.17;;;17.80;99.90;;;;;;4995493;28;20662;-71
2024/04/07 03:59:36;;;;;;;10.13;3.70;;;17.90;99.90;;;;;;4995678;28;20181;-72
2024/04/07 04:02:02;;;;;;;8.77;2.97;;;17.90;99.90;;;;;;4995345;28;20189;-71
2024/04/07 04:04:27;;;;;;;4.37;3.07;;;17.90;99.90;;;;;;4995784;28;20181;-71
2024/04/07 04:06:53;;;;;;;7.97;3.07;;;17.80;99.90;;;;;;4995608;28;20550;-71
2024/04/07 04:09:18;;;;;;;7.10;3.03;;;17.80;99.90;;;;;;4995239;28;20195;-71
2024/04/07 04:11:44;;;;;;;7.10;3.60;;;17.80;99.90;;;;;;4995600;28;20276;-71
2024/04/07 04:14:09;;;;;;;8.70;3.17;;;17.80;99.90;;;;;;4995365;28;20177;-71
2024/04/07 04:16:35;;;;;;;5.67;2.60;;;17.80;99.90;;;;;;4995207;28;20712;-71
2024/04/07 04:19:03;;;;;;;5.27;3.03;;;17.70;99.90;;;;;;4995199;28;20173;-70
2024/04/07 04:21:29;;;;;;;4.23;2.70;;;17.70;99.90;;;;;;4995451;28;20228;-71
2024/04/07 04:23:54;;;;;;;6.33;3.13;;;17.50;99.90;;;;;;4994923;28;20215;-70
2024/04/07 04:26:20;;;;;;;7.40;3.70;;;17.50;99.90;;;;;;4995632;28;20189;-71
2024/04/07 04:28:45;;;;;;;4.93;2.93;;;17.40;99.90;;;;;;4995024;28;20320;-73
2024/04/07 04:31:11;;;;;;;9.90;3.70;;;17.30;99.90;;;;;;4994846;28;20169;-71
2024/04/07 04:33:37;;;;;;;7.10;3.40;;;17.30;99.90;;;;;;4995087;28;20638;-72
2024/04/07 04:36:11;;;;;;;6.30;3.70;;;17.20;99.90;;;;;;4994941;28;20208;-71
2024/04/07 04:38:36;;;;;;;8.93;3.40;;;17.10;99.90;;;;;;4994817;28;20191;-71
2024/04/07 04:41:02;;;;;;;6.10;3.33;;;17.10;99.90;;;;;;4994868;28;20173;-70
2024/04/07 04:43:28;;;;;;;4.33;3.33;;;17.10;99.90;;;;;;4994548;28;20184;-71
2024/04/07 04:46:06;;;;;;;8.00;3.13;;;17.00;99.90;;;;;;4993555;28;20665;-71
2024/04/07 04:48:33;;;;;;;5.13;3.10;;;16.90;99.90;;;;;;4994818;28;20207;-70
2024/04/07 04:50:59;;;;;;;5.80;3.23;;;16.90;99.90;;;;;;4994888;28;20192;-70
2024/04/07 04:53:25;;;;;;;6.53;3.20;;;16.80;99.90;;;;;;4994784;28;20683;-71
2024/04/07 04:55:51;;;;;;;6.60;3.83;;;16.80;99.90;;;;;;4994710;28;20200;-75
2024/04/07 04:58:18;;;;;;;13.00;4.17;;;16.80;99.90;;;;;;4993858;28;20184;-70
2024/04/07 05:00:43;;;;;;;5.77;3.40;;;16.80;99.90;;;;;;4994793;28;20526;-71
2024/04/07 05:03:09;;;;;;;6.47;3.30;;;16.80;99.90;;;;;;4994374;28;20197;-70
2024/04/07 05:05:35;;;;;;;5.63;3.90;;;16.80;99.90;;;;;;4994648;28;20185;-71
2024/04/07 05:08:00;;;;;;;5.70;3.50;;;16.80;99.90;;;;;;4994335;28;20173;-71
2024/04/07 05:10:26;;;;;;;7.33;3.73;;;16.80;99.90;;;;;;4994244;28;20608;-70
2024/04/07 05:12:52;;;;;;;5.83;3.37;;;16.90;99.90;;;;;;4994566;28;20215;-70
2024/04/07 05:15:18;;;;;;;6.30;3.23;;;16.80;99.90;;;;;;4994179;28;20197;-71
2024/04/07 05:17:46;;;;;;;7.60;3.67;;;16.80;99.90;;;;;;4994067;28;20605;-70
2024/04/07 05:20:15;;;;;;;7.90;3.73;;;16.80;99.90;;;;;;4994201;28;20257;-70
2024/04/07 05:22:42;;;;;;;7.30;3.30;;;16.80;99.90;;;;;;4994215;28;20189;-71
2024/04/07 05:25:08;;;;;;;7.30;3.53;;;16.80;99.90;;;;;;4993980;28;20183;-71
2024/04/07 05:27:34;;;;;;;5.17;3.53;;;16.80;99.90;;;;;;4992602;28;20559;-70
2024/04/07 05:30:01;;;;;;;5.63;3.17;;;16.80;99.90;;;;;;4994094;28;20177;-70
2024/04/07 05:32:27;;;;;;;4.03;3.70;;;16.80;99.90;;;;;;4993815;28;20555;-71
2024/04/07 05:34:52;;;;;;;7.63;3.57;;;16.80;99.90;;;;;;4993773;28;20236;-70
2024/04/07 05:37:18;;;;;;;4.80;3.60;;;16.90;99.90;;;;;;4993764;28;20181;-70
2024/04/07 05:39:51;;;;;;;6.13;3.43;;;17.00;99.90;;;;;;4993546;28;20185;-71
2024/04/07 05:42:19;;;;;;;6.83;3.40;;;17.00;99.90;;;;;;4993628;28;20201;-70
2024/04/07 05:44:45;;;;;;;6.53;3.93;;;17.10;99.90;;;;;;4993675;28;20205;-73
2024/04/07 05:47:11;;;;;;;10.13;4.63;;;17.10;99.90;;;;;;4993286;28;20255;-72
2024/04/07 05:49:38;;;;;;;5.07;3.20;;;17.20;99.90;;;;;;4993571;28;20173;-72
2024/04/07 05:52:07;;;;;;;4.97;3.30;;;17.20;99.90;;;;;;4993243;28;20197;-72
2024/04/07 05:54:33;;;;;;;5.33;3.17;;;17.20;99.90;;;;;;4993288;28;20622;-72
2024/04/07 05:56:59;;;;;;;3.93;3.00;;;17.30;99.90;;;;;;4993062;28;20213;-72
2024/04/07 05:59:24;;;;;;;4.80;3.20;;;17.30;99.90;;;;;;4994518;28;20185;-72
2024/04/07 06:01:50;;;;;;;4.87;3.23;;;17.30;99.90;;;;;;4994802;28;20539;-72
2024/04/07 06:04:16;;;;;;;9.40;3.67;;;17.30;99.90;;;;;;4993696;28;20222;-72
2024/04/07 06:06:42;;;;;;;7.53;4.00;;;17.20;99.90;;;;;;5009108;28;20192;-73
2024/04/07 06:09:07;;;;;;;5.57;3.40;;;17.20;99.90;;;;;;4993913;28;20189;-73
2024/04/07 06:11:33;;;;;;;4.80;3.50;;;17.10;99.90;;;;;;4994656;28;20200;-73
2024/04/07 06:13:59;;;;;;;4.23;3.50;;;17.10;99.90;;;;;;4993546;28;20204;-72
2024/04/07 06:16:24;;;;;;;4.63;3.30;;;17.00;99.90;;;;;;4993203;28;20212;-73
2024/04/07 06:18:54;;;;;;;4.67;3.70;;;17.00;99.90;;;;;;4993319;28;20630;-73
2024/04/07 06:21:21;;;;;;;9.20;3.50;;;17.00;99.90;;;;;;4991563;28;20268;-73
2024/04/07 06:23:47;;;;;;;6.67;3.07;;;17.00;99.90;;;;;;4993250;28;20169;-74
2024/04/07 06:26:13;;;;;;;4.00;2.80;;;17.00;99.90;;;;;;4993126;28;20635;-73
2024/04/07 06:28:39;;;;;;;5.30;4.53;;;17.00;99.90;;;;;;4993513;28;20600;-73
2024/04/07 06:31:05;;;;;;;6.90;4.43;;;17.00;99.90;;;;;;4993214;28;20211;-73
2024/04/07 06:33:31;;;;;;;6.10;5.50;;;17.00;99.90;;;;;;4992516;28;20176;-74
2024/04/07 06:35:58;;;;;;;6.10;4.23;;;17.10;99.90;;;;;;4992865;28;20209;-73
2024/04/07 06:38:24;;;;;;;8.80;4.60;;;17.20;99.90;;;;;;4992656;28;20199;-73
2024/04/07 06:40:51;;;;;;;5.30;4.23;;;17.30;99.90;;;;;;4993427;28;20176;-73
2024/04/07 06:43:16;;;;;;;4.67;3.33;;;17.40;99.90;;;;;;4992790;28;20610;-73
2024/04/07 06:45:42;;;;;;;3.70;3.40;;;17.60;99.90;;;;;;4992707;28;20212;-73
2024/04/07 06:48:08;;;;;;;4.83;3.00;;;17.80;99.90;;;;;;4992113;28;20180;-73
2024/04/07 06:50:34;;;;;;;6.13;2.70;;;17.90;99.90;;;;;;4992616;28;20239;-73
2024/04/07 06:52:59;;;;;;;3.93;2.53;;;18.20;99.90;;;;;;4993211;28;20455;-73
2024/04/07 06:55:25;;;;;;;7.10;3.00;;;18.50;99.90;;;;;;4993601;28;20205;-73
2024/04/07 06:57:51;;;;;;;4.70;2.50;;;18.80;99.90;;;;;;4993937;28;20172;-73
2024/04/07 07:00:16;;;;;;;3.03;2.72;;;19.10;99.90;;;;;;4995380;28;20200;-72
2024/04/07 07:02:42;;;;;;;3.92;2.58;;;19.40;99.90;;;;;;4994461;28;20232;-73
2024/04/07 07:05:09;;;;;;;3.90;3.25;;;19.60;99.90;;;;;;4992516;28;20173;-72
2024/04/07 07:07:35;;;;;;;4.13;2.75;;;19.70;99.90;;;;;;4991919;28;20609;-73
2024/04/07 07:10:01;;;;;;;4.05;2.50;;;19.80;99.90;;;;;;4992010;28;20196;-73
2024/04/07 07:12:26;;;;;;;3.03;2.75;;;19.80;99.90;;;;;;4992068;28;20193;-73
2024/04/07 07:14:52;;;;;;;4.07;2.67;;;19.70;99.90;;;;;;4991560;28;20232;-73
2024/04/07 07:17:18;;;;;;;2.92;2.50;;;19.50;99.90;;;;;;4991710;28;20215;-73
2024/04/07 07:19:44;;;;;;;2.53;2.38;;;19.40;99.90;;;;;;4991898;28;20177;-73
2024/04/07 07:22:09;;;;;;;3.72;2.22;;;19.20;99.90;;;;;;4991838;28;20291;-73
2024/04/07 07:24:35;;;;;;;3.65;2.55;;;19.10;99.90;;;;;;4991760;28;20235;-73
2024/04/07 07:27:01;;;;;;;3.13;2.58;;;19.10;99.90;;;;;;4991721;28;20548;-73
2024/04/07 07:29:26;;;;;;;5.88;2.60;;;19.10;99.90;;;;;;4992066;28;20674;-73
2024/04/07 07:31:56;;;;;;;5.47;2.97;;;19.00;99.90;;;;;;4991511;28;20211;-74
2024/04/07 07:34:22;;;;;;;3.80;3.00;;;18.90;99.90;;;;;;4992279;28;20645;-73
2024/04/07 07:36:48;;;;;;;6.60;2.63;;;18.80;99.90;;;;;;4992302;28;20688;-73
2024/04/07 07:39:14;;;;;;;3.20;2.92;;;18.80;99.90;;;;;;4992293;28;20177;-73
2024/04/07 07:41:39;;;;;;;3.65;2.50;;;18.70;99.90;;;;;;4990895;28;20192;-74
2024/04/07 07:44:05;;;;;;;6.53;3.22;;;18.70;99.90;;;;;;4991302;28;20192;-73
2024/04/07 07:46:31;;;;;;;6.45;2.78;;;18.60;99.90;;;;;;4990410;28;20180;-73
2024/04/07 07:48:57;;;;;;;4.10;3.20;;;18.50;99.90;;;;;;4992053;28;20165;-73
2024/04/07 07:51:23;;;;;;;7.05;3.70;;;18.50;99.90;;;;;;4991611;28;20195;-73
2024/04/07 07:53:49;;;;;;;3.25;2.65;;;18.50;99.90;;;;;;4992322;28;20651;-74
2024/04/07 07:56:14;;;;;;;6.10;2.90;;;18.50;99.90;;;;;;4990824;28;20193;-73
2024/04/07 07:58:40;;;;;;;4.78;3.00;;;18.50;99.90;;;;;;4991641;28;20176;-73
2024/04/07 08:01:07;;;;;;;6.37;3.80;;;18.60;99.90;;;;;;4991818;28;20177;-73
2024/04/07 08:03:32;;;;;;;4.20;3.20;;;18.60;99.90;;;;;;4991733;28;20634;-73
2024/04/07 08:05:59;;;;;;;3.08;2.88;;;18.70;99.90;;;;;;4991900;28;20223;-74
2024/04/07 08:08:24;;;;;;;3.47;2.92;;;18.70;99.90;;;;;;4991694;28;20235;-74
2024/04/07 08:10:50;;;;;;;3.17;2.55;;;18.90;99.90;;;;;;4991026;28;20551;-74
2024/04/07 08:13:16;;;;;;;6.10;2.97;;;19.00;99.90;;;;;;4991602;28;20713;-72
2024/04/07 08:15:46;;;;;;;5.50;2.63;;;19.20;99.90;;;;;;4991642;28;20283;-73
2024/04/07 08:18:12;;;;;;;6.88;3.00;;;19.40;99.90;;;;;;4991447;28;20209;-73
2024/04/07 08:20:39;;;;;;;4.07;2.67;;;19.50;99.90;;;;;;4991619;28;20165;-73
2024/04/07 08:23:05;;;;;;;5.60;3.17;;;19.60;99.90;;;;;;4991318;28;20208;-73
2024/04/07 08:25:31;;;;;;;7.40;3.00;;;19.80;99.90;;;;;;4991638;28;20525;-73
2024/04/07 08:27:57;;;;;;;6.70;3.05;;;20.00;99.90;;;;;;4991110;28;20709;-73
2024/04/07 08:30:22;;;;;;;5.28;2.95;;;20.30;99.90;;;;;;4991127;28;20252;-73
2024/04/07 08:32:48;;;;;;;4.90;2.80;;;20.70;99.90;;;;;;4993041;28;20212;-74
2024/04/07 08:35:14;;;;;;;5.47;2.53;;;21.20;99.90;;;;;;4995200;28;20538;-73
2024/04/07 08:37:40;;;;;;;5.10;2.47;;;21.80;99.90;;;;;;4996129;28;20555;-73
2024/04/07 08:40:07;;;;;;;3.38;2.33;;;22.30;99.90;;;;;;4996055;28;20204;-73
2024/04/07 08:42:32;;;;;;;3.58;2.20;;;22.80;99.90;;;;;;4995960;28;20201;-74
2024/04/07 08:45:01;;;;;;;4.95;2.22;;;23.10;99.90;;;;;;4996035;28;20169;-74
2024/04/07 08:47:28;;;;;;;3.30;2.50;;;23.30;99.90;;;;;;4995565;28;20192;-74
2024/04/07 08:49:55;;;;;;;4.25;2.33;;;23.50;99.90;;;;;;4994877;28;20160;-74
2024/04/07 08:52:21;;;;;;;3.95;2.15;;;23.70;99.90;;;;;;4994454;28;20231;-74
2024/04/07 08:54:47;;;;;;;5.65;2.05;;;24.10;99.90;;;;;;5009537;28;20173;-74
2024/04/07 08:57:14;;;;;;;5.05;2.63;;;24.50;99.90;;;;;;5004656;28;20223;-74
2024/04/07 08:59:49;;;;;;;7.15;2.30;;;24.90;99.90;;;;;;5013664;28;20168;-74
2024/04/07 09:02:16;;;;;;;3.20;2.00;;;25.30;99.90;;;;;;5013727;28;20191;-73
2024/04/07 09:04:42;;;;;;;2.70;2.30;;;25.30;99.90;;;;;;5002112;28;20200;-74
2024/04/07 09:07:08;;;;;;;5.60;2.90;;;25.30;99.90;;;;;;4994337;28;20213;-73
2024/04/07 09:09:34;;;;;;;6.35;2.47;;;24.80;99.90;;;;;;4993965;28;20165;-73
2024/04/07 09:12:01;;;;;;;4.40;2.22;;;24.40;99.90;;;;;;4993982;28;20199;-74
2024/04/07 09:14:27;;;;;;;3.88;2.08;;;24.00;99.90;;;;;;4993834;28;20177;-72
2024/04/07 09:17:04;;;;;;;3.95;2.17;;;23.70;99.90;;;;;;4993619;28;20283;-73
2024/04/07 09:19:34;;;;;;;5.65;2.38;;;23.40;99.90;;;;;;4993713;28;20323;-73
2024/04/07 09:22:02;;;;;;;3.00;2.03;;;23.30;99.90;;;;;;4993497;28;20205;-73
2024/04/07 09:24:30;;;;;;;4.40;2.17;;;23.10;99.90;;;;;;4994176;28;20183;-74
2024/04/07 09:26:59;;;;;;;4.85;2.22;;;23.20;99.90;;;;;;4993495;28;20188;-74
2024/04/07 09:29:28;;;;;;;5.85;2.42;;;23.30;99.90;;;;;;4993616;28;20235;-73
2024/04/07 09:31:55;;;;;;;6.53;2.42;;;23.20;99.90;;;;;;4993782;28;20209;-73
2024/04/07 09:34:20;;;;;;;3.60;2.08;;;23.30;99.90;;;;;;4993522;28;20191;-73
2024/04/07 09:36:46;;;;;;;2.42;2.17;;;23.40;99.90;;;;;;4993502;28;20201;-74
2024/04/07 09:39:11;;;;;;;3.67;2.25;;;23.40;99.90;;;;;;4992898;28;20175;-74
2024/04/07 09:41:37;;;;;;;3.85;1.92;;;23.40;99.90;;;;;;4992572;28;20251;-74
2024/04/07 09:44:06;;;;;;;4.15;1.95;;;23.20;99.90;;;;;;4992405;28;20173;-73
2024/04/07 09:46:39;;;;;;;4.63;2.30;;;23.00;99.90;;;;;;4992815;28;20211;-73
2024/04/07 09:49:08;;;;;;;3.58;1.90;;;23.00;99.90;;;;;;4992767;28;20184;-75
2024/04/07 09:51:50;;;;;;;3.83;2.00;;;23.20;99.90;;;;;;4993158;28;20197;-74
2024/04/07 09:54:27;;;;;;;3.78;1.90;;;23.30;99.90;;;;;;4992572;28;20264;-73
2024/04/07 09:56:54;;;;;;;4.95;1.80;;;23.50;99.90;;;;;;4993185;28;20283;-73
2024/04/07 09:59:20;;;;;;;2.08;1.88;;;23.60;99.90;;;;;;4993552;28;20173;-73
2024/04/07 10:01:46;;;;;;;3.83;2.42;;;23.80;99.90;;;;;;4993101;28;20566;-73
2024/04/07 10:04:12;;;;;;;3.03;2.33;;;24.00;99.90;;;;;;4992825;28;20176;-73
2024/04/07 10:06:39;;;;;;;3.15;2.20;;;24.10;99.90;;;;;;4993435;28;20181;-74
2024/04/07 10:09:05;;;;;;;3.30;2.13;;;24.20;99.90;;;;;;4993625;28;20191;-73
2024/04/07 10:11:31;;;;;;;4.13;1.80;;;24.20;99.90;;;;;;4993463;28;20201;-73
2024/04/07 10:13:57;;;;;;;2.33;1.90;;;24.00;99.90;;;;;;4993015;28;20181;-74
2024/04/07 10:16:26;;;;;;;2.88;1.70;;;23.70;99.90;;;;;;4992903;28;20283;-73
2024/04/07 10:18:53;;;;;;;2.83;2.30;;;23.20;99.90;;;;;;4992787;28;20211;-73
2024/04/07 10:21:19;;;;;;;3.42;1.90;;;22.80;99.90;;;;;;4992484;28;20165;-73
2024/04/07 10:23:46;;;;;;;3.88;2.03;;;22.70;99.90;;;;;;4992585;28;20211;-73
2024/04/07 10:26:15;;;;;;;3.83;1.92;;;22.50;99.90;;;;;;4993629;28;20183;-73
2024/04/07 10:28:56;;;;;;;2.45;1.83;;;22.50;99.90;;;;;;4992539;28;20188;-73
2024/04/07 10:31:26;;;;;;;2.85;2.13;;;22.30;99.90;;;;;;4992761;28;20677;-73
2024/04/07 10:33:53;;;;;;;4.10;2.38;;;22.20;99.90;;;;;;4992838;28;20200;-74
2024/04/07 10:36:22;;;;;;;4.80;2.30;;;22.10;99.90;;;;;;4991588;28;20283;-73
2024/04/07 10:38:57;;;;;;;4.40;2.30;;;22.00;99.90;;;;;;4992532;28;20220;-74
2024/04/07 10:41:33;;;;;;;4.18;2.05;;;22.30;99.90;;;;;;4992067;28;20215;-73
2024/04/07 10:44:00;;;;;;;6.43;1.83;;;22.70;99.90;;;;;;4992773;28;20164;-74
2024/04/07 10:46:27;;;;;;;3.45;1.90;;;23.10;99.90;;;;;;4992076;28;20180;-73
2024/04/07 10:48:53;;;;;;;2.88;2.17;;;23.30;99.90;;;;;;4992776;28;20255;-73
2024/04/07 10:51:19;;;;;;;4.57;1.90;;;23.50;99.90;;;;;;4992546;28;20173;-73
2024/04/07 10:53:46;;;;;;;2.45;1.98;;;23.70;99.90;;;;;;4992379;28;20193;-73
2024/04/07 10:56:12;;;;;;;3.88;1.90;;;23.80;99.90;;;;;;4991999;28;20657;-74
2024/04/07 10:58:39;;;;;;;4.28;2.03;;;24.10;99.90;;;;;;4993633;28;20200;-73
2024/04/07 11:01:05;;;;;;;2.42;2.10;;;24.40;99.90;;;;;;4993713;28;20282;-74
2024/04/07 11:03:33;;;;;;;6.75;2.30;;;24.60;99.90;;;;;;4993321;28;20183;-73
2024/04/07 11:06:00;;;;;;;5.05;1.73;;;24.40;99.90;;;;;;4993774;28;20637;-73
2024/04/07 11:08:27;;;;;;;2.08;1.70;;;24.60;99.90;;;;;;4993007;28;20658;-73
2024/04/07 11:10:53;;;;;;;3.47;1.85;;;24.60;99.90;;;;;;4992525;28;20172;-72
2024/04/07 11:13:20;;;;;;;2.28;1.75;;;24.50;99.90;;;;;;4992376;28;20209;-73
2024/04/07 11:15:52;;;;;;;3.85;1.90;;;24.50;99.90;;;;;;4992659;28;20197;-72
2024/04/07 11:18:20;;;;;;;4.78;1.77;;;24.50;99.90;;;;;;4991919;28;20165;-73
2024/04/07 11:20:46;;;;;;;4.72;1.75;;;24.40;99.90;;;;;;4992776;28;20196;-73
2024/04/07 11:23:12;;;;;;;6.18;1.73;;;24.20;99.90;;;;;;4992592;28;20192;-74
2024/04/07 11:25:41;;;;;;;2.33;1.98;;;24.20;99.90;;;;;;4992733;28;20176;-73
2024/04/07 11:28:12;;;;;;;3.95;2.05;;;24.40;99.90;;;;;;4992461;28;20168;-73
2024/04/07 11:30:39;;;;;;;1.80;1.67;;;24.60;99.90;;;;;;4992270;28;20658;-73
2024/04/07 11:33:08;;;;;;;2.88;1.90;;;24.90;99.90;;;;;;4992233;28;20315;-74
2024/04/07 11:35:36;;;;;;;2.40;1.98;;;25.10;99.90;;;;;;4992728;28;20192;-74
2024/04/07 11:38:03;;;;;;;6.15;2.00;;;25.20;99.90;;;;;;4991927;28;20180;-74
2024/04/07 11:40:29;;;;;;;2.00;1.70;;;25.20;99.90;;;;;;4992797;28;20168;-73
2024/04/07 11:42:58;;;;;;;2.85;1.85;;;25.10;99.40;;;;;;4992333;28;20196;-73
2024/04/07 11:45:25;;;;;;;3.47;2.30;;;25.10;99.90;;;;;;4992992;28;20173;-74
2024/04/07 11:47:51;;;;;;;3.13;2.08;;;25.10;99.90;;;;;;4992943;28;20169;-74
2024/04/07 11:50:17;;;;;;;8.68;2.58;;;25.00;99.90;;;;;;4992563;28;20717;-74
2024/04/07 11:52:42;;;;;;;2.42;2.20;;;25.10;99.90;;;;;;4991846;28;20292;-74
2024/04/07 11:55:08;;;;;;;2.75;1.80;;;25.10;99.90;;;;;;4991614;28;20164;-73
2024/04/07 11:57:35;;;;;;;1.77;1.65;;;25.10;99.90;;;;;;4992014;28;20516;-73
2024/04/07 12:00:01;;;;;;;3.00;2.08;;;25.20;99.90;;;;;;4992071;28;20219;-74
2024/04/07 12:02:26;;;;;;;2.05;1.80;;;25.40;99.90;;;;;;4991756;28;20193;-74
2024/04/07 12:04:52;;;;;;;2.67;1.80;;;25.70;99.90;;;;;;4991965;28;20173;-74
2024/04/07 12:07:19;;;;;;;2.60;1.80;;;25.70;99.90;;;;;;4992124;28;20650;-74
2024/04/07 12:09:44;;;;;;;4.10;1.98;;;25.50;99.90;;;;;;4995486;28;20188;-73
2024/04/07 12:12:10;;;;;;;4.18;1.85;;;25.40;99.90;;;;;;4995478;28;20680;-73
2024/04/07 12:14:36;;;;;;;1.90;1.80;;;25.60;99.90;;;;;;4995487;28;20192;-73
2024/04/07 12:17:02;;;;;;;3.30;1.85;;;25.80;99.90;;;;;;4995424;28;20212;-73
2024/04/07 12:19:28;;;;;;;4.90;1.83;;;25.80;99.90;;;;;;4995683;28;20542;-73
2024/04/07 12:21:54;;;;;;;1.85;1.75;;;25.60;99.90;;;;;;4995326;28;20201;-73
2024/04/07 12:24:20;;;;;;;2.17;1.90;;;25.40;99.00;;;;;;4994875;28;20463;-73
2024/04/07 12:26:50;;;;;;;2.58;2.00;;;25.30;99.90;;;;;;4995233;28;20200;-73
2024/04/07 12:29:15;;;;;;;3.40;1.90;;;25.40;99.90;;;;;;4995668;28;20181;-74
2024/04/07 12:31:41;;;;;;;3.20;1.73;;;25.50;99.90;;;;;;4995139;28;20208;-73
2024/04/07 12:34:07;;;;;;;2.72;1.75;;;25.70;99.90;;;;;;4995474;28;20185;-74
2024/04/07 12:36:33;;;;;;;3.92;1.92;;;26.10;99.90;;;;;;4993604;28;20201;-73
2024/04/07 12:39:06;;;;;;;3.95;1.70;;;26.50;99.90;;;;;;4994885;28;20169;-75
2024/04/07 12:41:32;;;;;;;2.97;1.80;;;26.60;99.10;;;;;;4995394;28;20223;-75
2024/04/07 12:43:58;;;;;;;2.38;1.70;;;26.50;98.70;;;;;;4995015;28;20181;-74